Shemah Yisrael!
Hear, O Israel: the LORD our God, the LORD is one.
You shall love the LORD your God with all your heart and with all your soul and with all your might.
(Deuteronomy 6:4-5)
Station name not available
Aug 21, 2019 - 04:50 PM EDT / 2019.08.21 2050 UTC
Wind: from the SSE (150 degrees) at 12 MPH (10 KT):0
Visibility: 10 mile(s):0
Sky conditions: mostly cloudy
Temperature: 91 F (33 C)
Heat index: 99.1 F (37.3 C):1
Dew Point: 73 F (23 C)
Relative Humidity: 55%
Pressure (altimeter): 29.97 in. Hg (1014 hPa)
ob: KEFD 212050Z 15010KT 10SM SCT030 SCT090 BKN250 33/23 A2997 
cycle: 21
w e b m a s t e r   a t   s h e m a h   d o t   n e t